Terminal Aerodrome Forecast
Issued by NWS Sioux Falls, SD

Home | Current Version | Previous Version | Graphics & Text | Print | Product List | Glossary On
Versions: 1 2 3 4 5 6 7 8 9 10 11 12 13 14 15 16 17 18 19 20 21 22 23 24 25
000
FTUS43 KFSD 291143 CCA
TAFHON
TAF COR
KHON 291143Z 2912/3012 VRB04KT P6SM BKN015
      TEMPO 2912/2915 SCT015 BKN200
     FM291500 07005KT P6SM BKN018 BKN060
     FM291700 08010KT P6SM BKN025
     FM292000 09011KT P6SM BKN035
     FM300600 05008KT P6SM SCT035 BKN150=

USA.gov is the U.S. government's official web portal to all federal, state and local government web resources and services.